Time;durP1;ratioP1;P1;durP2;ratioP2;P2;SDS_P1;SDS_P2;PMS_P1;PMS_P2;Temp;Humidity;BMP_temperature;BMP_pressure;BME280_temperature;BME280_humidity;BME280_pressure;Samples;Min_cycle;Max_cycle;Signal;HPM_P1;HPM_P2
2022/11/22 00:02:11;;;;;;;3.75;2.72;;;3.90;99.90;;;;;;5074138;28;20035;-32
2022/11/22 00:04:36;;;;;;;6.38;3.03;;;3.90;99.90;;;;;;5060399;28;20613;-30
2022/11/22 00:07:02;;;;;;;7.70;3.30;;;3.90;99.90;;;;;;5066053;28;20036;-30
2022/11/22 00:09:28;;;;;;;5.45;3.05;;;4.00;99.90;;;;;;5066128;28;20032;-30
2022/11/22 00:11:53;;;;;;;5.10;3.05;;;4.00;99.90;;;;;;5062559;28;20033;-30
2022/11/22 00:14:19;;;;;;;3.17;2.50;;;4.00;99.90;;;;;;5062148;28;20397;-30
2022/11/22 00:16:44;;;;;;;4.68;2.60;;;3.90;99.90;;;;;;5065584;28;20126;-31
2022/11/22 00:19:10;;;;;;;4.03;2.33;;;3.90;99.90;;;;;;5069911;28;20024;-30
2022/11/22 00:21:35;;;;;;;3.72;2.22;;;4.00;99.90;;;;;;5067747;28;20039;-32
2022/11/22 00:24:01;;;;;;;4.00;2.78;;;4.00;99.90;;;;;;5071701;28;20024;-30
2022/11/22 00:26:26;;;;;;;4.40;2.00;;;4.00;99.90;;;;;;5066228;28;20036;-30
2022/11/22 00:28:52;;;;;;;4.55;2.55;;;4.00;99.90;;;;;;5068020;28;20514;-30
2022/11/22 00:31:18;;;;;;;3.03;2.08;;;4.10;99.90;;;;;;5066842;28;20037;-30
2022/11/22 00:33:43;;;;;;;1.73;1.63;;;4.10;99.90;;;;;;5067039;28;20031;-30
2022/11/22 00:36:09;;;;;;;1.85;1.75;;;4.00;99.90;;;;;;5066662;28;20072;-31
2022/11/22 00:38:34;;;;;;;2.30;2.00;;;3.90;99.90;;;;;;5063647;28;20021;-30
2022/11/22 00:41:00;;;;;;;2.88;2.03;;;3.80;99.90;;;;;;5065028;28;20023;-30
2022/11/22 00:43:26;;;;;;;2.00;1.80;;;3.80;99.90;;;;;;5066827;28;20067;-32
2022/11/22 00:45:51;;;;;;;5.15;1.88;;;3.80;99.90;;;;;;5063966;28;20476;-30
2022/11/22 00:48:17;;;;;;;2.28;1.95;;;3.80;99.90;;;;;;5061133;28;20032;-31
2022/11/22 00:50:42;;;;;;;3.13;1.73;;;3.80;99.90;;;;;;5067255;28;20024;-31
2022/11/22 00:53:08;;;;;;;3.13;1.70;;;3.90;99.90;;;;;;5062710;28;20056;-30
2022/11/22 00:55:34;;;;;;;3.88;2.00;;;3.90;99.90;;;;;;5064583;28;20086;-30
2022/11/22 00:57:59;;;;;;;3.85;2.65;;;3.90;99.90;;;;;;5057618;28;20292;-33
2022/11/22 01:00:25;;;;;;;5.72;2.60;;;3.90;99.90;;;;;;5066640;28;20048;-31
2022/11/22 01:02:50;;;;;;;5.05;2.60;;;4.00;99.90;;;;;;5061465;28;20038;-30
2022/11/22 01:05:19;;;;;;;2.60;2.13;;;4.00;99.90;;;;;;5061987;28;20543;-31
2022/11/22 01:07:47;;;;;;;3.28;2.22;;;4.00;99.90;;;;;;5065595;28;20028;-32
2022/11/22 01:10:13;;;;;;;5.60;2.95;;;4.00;99.90;;;;;;5069125;28;20038;-35
2022/11/22 01:12:39;;;;;;;3.97;2.40;;;4.00;99.90;;;;;;5061756;28;20052;-30
2022/11/22 01:15:05;;;;;;;2.53;1.80;;;4.00;99.90;;;;;;5067497;28;20034;-31
2022/11/22 01:17:30;;;;;;;3.92;2.28;;;4.10;99.90;;;;;;5060203;28;20028;-34
2022/11/22 01:19:56;;;;;;;3.42;2.13;;;4.10;99.90;;;;;;5071090;28;20032;-31
2022/11/22 01:22:22;;;;;;;3.03;2.28;;;4.10;99.90;;;;;;5060658;28;20055;-30
2022/11/22 01:24:47;;;;;;;2.33;1.67;;;4.10;99.90;;;;;;5061070;28;20550;-30
2022/11/22 01:27:13;;;;;;;2.70;2.33;;;4.10;99.90;;;;;;5066639;28;20424;-30
2022/11/22 01:29:38;;;;;;;1.40;1.30;;;4.10;99.90;;;;;;5064480;28;20040;-31
2022/11/22 01:32:04;;;;;;;2.25;2.10;;;3.90;99.90;;;;;;5054260;28;20203;-31
2022/11/22 01:34:30;;;;;;;2.17;1.98;;;3.70;99.90;;;;;;5060996;28;20036;-30
2022/11/22 01:36:56;;;;;;;2.13;1.92;;;3.70;99.90;;;;;;5061859;28;20112;-31
2022/11/22 01:39:21;;;;;;;1.80;1.70;;;3.70;99.90;;;;;;5060934;28;20025;-31
2022/11/22 01:41:47;;;;;;;2.00;1.90;;;3.70;99.90;;;;;;5065850;28;20024;-31
2022/11/22 01:44:25;;;;;;;2.40;2.20;;;3.80;99.90;;;;;;5061709;28;20029;-30
2022/11/22 01:47:06;;;;;;;2.53;2.20;;;3.80;99.90;;;;;;5067924;28;20362;-30
2022/11/22 01:49:39;;;;;;;2.40;2.20;;;3.90;99.90;;;;;;5067873;28;20103;-30
2022/11/22 01:52:09;;;;;;;2.47;2.28;;;3.90;99.90;;;;;;5044962;28;20501;-30
2022/11/22 01:54:39;;;;;;;2.35;2.15;;;4.00;99.90;;;;;;5062768;28;20097;-30
2022/11/22 01:57:10;;;;;;;4.47;2.05;;;4.00;99.90;;;;;;5063244;28;20025;-32
2022/11/22 01:59:37;;;;;;;1.85;1.70;;;4.10;99.90;;;;;;5063410;28;20040;-30
2022/11/22 02:02:05;;;;;;;3.30;1.90;;;4.10;99.90;;;;;;5067587;28;20028;-31
2022/11/22 02:04:33;;;;;;;1.65;1.55;;;4.10;99.90;;;;;;5061225;28;20029;-32
2022/11/22 02:07:06;;;;;;;2.30;2.03;;;4.10;99.90;;;;;;5071085;28;20033;-31
2022/11/22 02:09:32;;;;;;;2.03;1.83;;;4.10;99.90;;;;;;5061973;28;20481;-31
2022/11/22 02:12:02;;;;;;;3.10;1.88;;;4.20;99.90;;;;;;5057854;28;20078;-31
2022/11/22 02:14:29;;;;;;;2.28;2.03;;;4.20;99.90;;;;;;5056203;28;20494;-31
2022/11/22 02:16:55;;;;;;;2.35;2.15;;;4.20;99.90;;;;;;5066856;28;20060;-31
2022/11/22 02:19:41;;;;;;;2.30;2.10;;;4.20;99.90;;;;;;5065831;28;20497;-35
2022/11/22 02:22:20;;;;;;;2.50;2.00;;;4.20;99.90;;;;;;5064472;28;20032;-32
2022/11/22 02:24:55;;;;;;;2.20;1.70;;;4.20;99.90;;;;;;5064666;28;20071;-36
2022/11/22 02:27:22;;;;;;;2.63;2.17;;;4.10;99.90;;;;;;5065974;28;20542;-34
2022/11/22 02:29:48;;;;;;;2.85;2.10;;;4.20;99.90;;;;;;5057503;28;20669;-35
2022/11/22 02:32:14;;;;;;;2.80;1.90;;;4.20;99.90;;;;;;5062768;28;20127;-31
2022/11/22 02:34:44;;;;;;;2.03;1.80;;;4.10;99.90;;;;;;5059018;28;20032;-34
2022/11/22 02:37:11;;;;;;;3.42;2.15;;;4.10;99.90;;;;;;5052983;28;20029;-32
2022/11/22 02:39:39;;;;;;;2.05;1.85;;;4.20;99.90;;;;;;5039755;28;20060;-34
2022/11/22 02:42:04;;;;;;;3.08;2.10;;;4.10;99.90;;;;;;5038094;28;20032;-33
2022/11/22 02:44:30;;;;;;;2.88;1.80;;;4.00;99.90;;;;;;5039801;28;20525;-34
2022/11/22 02:46:56;;;;;;;3.38;2.08;;;3.90;99.90;;;;;;5038947;28;20045;-31
2022/11/22 02:49:24;;;;;;;2.30;2.10;;;4.00;99.90;;;;;;5038324;28;21461;-32
2022/11/22 02:51:51;;;;;;;2.40;2.10;;;3.90;99.90;;;;;;5042912;28;20052;-36
2022/11/22 02:54:16;;;;;;;3.00;2.38;;;4.00;99.90;;;;;;5044241;28;20082;-33
2022/11/22 02:56:42;;;;;;;2.22;2.03;;;4.00;99.90;;;;;;5047244;28;20490;-32
2022/11/22 02:59:08;;;;;;;2.63;2.25;;;4.10;99.90;;;;;;5041193;28;20035;-33
2022/11/22 03:01:34;;;;;;;1.98;1.88;;;4.10;99.90;;;;;;5040372;28;20116;-33
2022/11/22 03:04:00;;;;;;;3.67;2.65;;;4.20;99.90;;;;;;5040295;28;20504;-33
2022/11/22 03:06:25;;;;;;;3.67;2.30;;;4.20;99.90;;;;;;5042104;28;20029;-33
2022/11/22 03:08:51;;;;;;;2.95;2.08;;;4.20;99.90;;;;;;5041788;28;20051;-31
2022/11/22 03:11:17;;;;;;;2.20;2.00;;;4.10;99.90;;;;;;5042696;28;20115;-36
2022/11/22 03:13:43;;;;;;;2.58;2.38;;;4.20;99.90;;;;;;5041983;28;20098;-31
2022/11/22 03:16:08;;;;;;;2.78;2.35;;;4.20;99.90;;;;;;5042221;28;20052;-32
2022/11/22 03:18:34;;;;;;;2.50;1.88;;;4.20;99.90;;;;;;5041779;28;20560;-35
2022/11/22 03:21:04;;;;;;;1.92;1.83;;;4.30;99.90;;;;;;5041338;28;20033;-34
2022/11/22 03:23:30;;;;;;;2.13;1.67;;;4.30;99.90;;;;;;5040984;28;20063;-33
2022/11/22 03:25:56;;;;;;;1.92;1.80;;;4.30;99.90;;;;;;5042191;28;20033;-32
2022/11/22 03:28:21;;;;;;;2.78;2.40;;;4.40;99.90;;;;;;5042197;28;21902;-35
2022/11/22 03:30:47;;;;;;;2.15;1.90;;;4.40;99.90;;;;;;5040897;28;20102;-33
2022/11/22 03:33:12;;;;;;;1.98;1.67;;;4.40;99.90;;;;;;5049040;28;20108;-35
2022/11/22 03:35:38;;;;;;;3.85;3.53;;;4.50;99.90;;;;;;5041843;28;20025;-31
2022/11/22 03:38:04;;;;;;;4.68;3.40;;;4.50;99.90;;;;;;5045537;28;20098;-32
2022/11/22 03:40:30;;;;;;;2.58;1.88;;;4.50;99.90;;;;;;5039712;28;20117;-34
2022/11/22 03:42:59;;;;;;;3.53;2.10;;;4.60;99.90;;;;;;5040814;28;20541;-35
2022/11/22 03:45:25;;;;;;;4.35;2.60;;;4.60;99.90;;;;;;5047914;28;20430;-33
2022/11/22 03:47:50;;;;;;;1.45;1.35;;;4.70;99.90;;;;;;5041245;28;20182;-34
2022/11/22 03:50:16;;;;;;;1.60;1.50;;;4.70;99.90;;;;;;5042517;28;20594;-34
2022/11/22 03:52:41;;;;;;;2.10;1.90;;;4.80;99.90;;;;;;5041394;28;20482;-35
2022/11/22 03:55:07;;;;;;;2.35;1.60;;;4.80;99.90;;;;;;5041080;28;20072;-36
2022/11/22 03:57:33;;;;;;;3.75;1.48;;;4.80;99.90;;;;;;5041323;28;20043;-31
2022/11/22 03:59:58;;;;;;;1.83;1.55;;;4.90;99.90;;;;;;5044906;28;20109;-30
2022/11/22 04:02:24;;;;;;;1.40;1.33;;;5.00;99.90;;;;;;5045665;28;20774;-35
2022/11/22 04:04:50;;;;;;;2.00;1.38;;;5.00;99.90;;;;;;5043246;28;20409;-32
2022/11/22 04:07:15;;;;;;;2.55;1.70;;;5.00;99.90;;;;;;5041529;28;20044;-34
2022/11/22 04:09:41;;;;;;;2.65;2.08;;;5.20;99.90;;;;;;5043476;28;20046;-33
2022/11/22 04:12:06;;;;;;;2.35;2.15;;;5.20;99.90;;;;;;5047220;28;20048;-32
2022/11/22 04:17:39;;;;;;;4.43;2.17;;;5.30;99.90;;;;;;5064392;28;20043;-31
2022/11/22 04:22:57;;;;;;;2.58;2.03;;;5.30;99.90;;;;;;5061830;28;20512;-33
2022/11/22 04:25:24;;;;;;;3.45;2.53;;;5.30;99.90;;;;;;5070233;28;20024;-31
2022/11/22 04:27:50;;;;;;;3.45;2.50;;;5.30;99.90;;;;;;5065192;28;20082;-31
2022/11/22 04:30:16;;;;;;;3.20;2.28;;;5.30;99.90;;;;;;5045077;28;20033;-34
2022/11/22 04:32:44;;;;;;;1.95;1.77;;;5.30;99.90;;;;;;5041318;28;20524;-31
2022/11/22 04:35:11;;;;;;;2.90;2.58;;;5.30;99.90;;;;;;5044273;28;20035;-34
2022/11/22 04:37:37;;;;;;;3.75;3.38;;;5.30;99.90;;;;;;5044599;28;21121;-32
2022/11/22 04:40:03;;;;;;;4.07;2.67;;;5.30;99.90;;;;;;5039937;28;20093;-33
2022/11/22 04:45:12;;;;;;;3.70;2.40;;;5.30;99.90;;;;;;5041725;28;20083;-33
2022/11/22 04:53:06;;;;;;;4.65;3.45;;;5.30;99.90;;;;;;5053614;28;20052;-32
2022/11/22 04:55:32;;;;;;;4.40;3.45;;;5.30;99.90;;;;;;5061301;28;20025;-30
2022/11/22 04:57:57;;;;;;;4.15;2.63;;;5.30;99.90;;;;;;5084075;28;20035;-30
2022/11/22 05:00:23;;;;;;;21.13;8.48;;;5.30;99.90;;;;;;5071499;28;20032;-31
2022/11/22 05:02:49;;;;;;;42.90;14.52;;;5.30;99.90;;;;;;5063505;28;20119;-31
2022/11/22 05:05:15;;;;;;;29.98;10.15;;;5.40;99.90;;;;;;5063061;28;20545;-31
2022/11/22 05:07:40;;;;;;;13.75;5.93;;;5.30;99.90;;;;;;5063186;28;20366;-31
2022/11/22 05:10:06;;;;;;;35.90;13.95;;;5.40;99.90;;;;;;5065924;28;20208;-31
2022/11/22 05:12:32;;;;;;;28.52;11.80;;;5.30;99.90;;;;;;5064572;28;20086;-30
2022/11/22 05:14:58;;;;;;;29.92;13.13;;;5.30;99.90;;;;;;5063604;28;20057;-34
2022/11/22 05:17:23;;;;;;;20.38;9.73;;;5.30;99.90;;;;;;5063543;28;20020;-30
2022/11/22 05:19:49;;;;;;;4.43;2.65;;;5.40;99.90;;;;;;5069831;28;20024;-31
2022/11/22 05:22:15;;;;;;;5.50;3.25;;;5.40;99.90;;;;;;5064788;28;20029;-31
2022/11/22 05:24:41;;;;;;;4.43;2.58;;;5.40;99.90;;;;;;5065420;28;20473;-31
2022/11/22 05:27:06;;;;;;;4.30;2.50;;;5.40;99.90;;;;;;5068611;28;20032;-30
2022/11/22 05:29:32;;;;;;;5.47;2.75;;;5.40;99.90;;;;;;5066949;28;20040;-30
2022/11/22 05:31:57;;;;;;;3.50;2.55;;;5.40;99.90;;;;;;5068606;28;20406;-34
2022/11/22 05:34:23;;;;;;;3.67;2.58;;;5.40;99.90;;;;;;5071619;28;20028;-32
2022/11/22 05:36:48;;;;;;;4.63;2.50;;;5.40;99.90;;;;;;5061969;28;20033;-31
2022/11/22 05:39:14;;;;;;;5.10;2.75;;;5.40;99.90;;;;;;5063713;28;20024;-31
2022/11/22 05:41:54;;;;;;;3.30;2.88;;;5.40;99.90;;;;;;5061075;28;20128;-31
2022/11/22 05:44:21;;;;;;;4.18;2.60;;;5.40;99.90;;;;;;5065056;28;20033;-31
2022/11/22 05:46:46;;;;;;;3.55;2.70;;;5.40;99.90;;;;;;5067896;28;20044;-33
2022/11/22 05:49:12;;;;;;;5.68;3.08;;;5.30;99.90;;;;;;5067341;28;20487;-32
2022/11/22 05:51:37;;;;;;;5.10;2.58;;;5.30;99.90;;;;;;5065169;28;20078;-34
2022/11/22 05:54:03;;;;;;;3.95;2.30;;;5.20;99.90;;;;;;5064284;28;20448;-31
2022/11/22 05:56:29;;;;;;;4.80;2.47;;;5.10;99.90;;;;;;5063329;28;20107;-34
2022/11/22 05:58:54;;;;;;;3.22;2.28;;;5.10;99.90;;;;;;5057279;28;20021;-33
2022/11/22 06:01:22;;;;;;;2.75;2.55;;;5.10;99.90;;;;;;5065449;28;20033;-31
2022/11/22 06:03:48;;;;;;;2.70;2.50;;;5.10;99.90;;;;;;5061938;28;20116;-31
2022/11/22 06:06:14;;;;;;;3.13;2.53;;;5.10;99.90;;;;;;5056963;28;20437;-32
2022/11/22 06:08:42;;;;;;;4.32;2.53;;;5.10;99.90;;;;;;5067007;28;20082;-32
2022/11/22 06:11:13;;;;;;;3.63;2.53;;;5.20;99.90;;;;;;5059905;28;20029;-31
2022/11/22 06:13:42;;;;;;;2.08;1.88;;;5.10;99.90;;;;;;5054993;28;20562;-31
2022/11/22 06:16:09;;;;;;;2.75;2.30;;;5.20;99.90;;;;;;5059102;28;20899;-34
2022/11/22 06:18:35;;;;;;;2.97;1.95;;;5.20;99.90;;;;;;5047050;28;20053;-34
2022/11/22 06:21:03;;;;;;;2.95;2.38;;;5.20;99.90;;;;;;5040752;28;20057;-31
2022/11/22 06:23:29;;;;;;;6.43;2.80;;;5.20;99.90;;;;;;5065166;28;20465;-31
2022/11/22 06:26:16;;;;;;;3.85;2.35;;;5.20;99.90;;;;;;5049264;28;20529;-30
2022/11/22 06:28:43;;;;;;;5.15;2.85;;;5.20;99.90;;;;;;5052366;28;20032;-35
2022/11/22 06:31:11;;;;;;;3.92;2.70;;;5.20;99.90;;;;;;5037493;28;20040;-34
2022/11/22 06:33:37;;;;;;;;;;;5.10;99.90;;;;;;5047993;28;20091;-31
2022/11/22 06:36:08;;;;;;;2.80;2.55;;;5.20;99.90;;;;;;5038845;28;20574;-34
2022/11/22 06:38:34;;;;;;;3.53;3.05;;;5.20;99.90;;;;;;5040859;28;20028;-31
2022/11/22 06:41:01;;;;;;;5.90;4.03;;;5.20;99.90;;;;;;5064165;28;20394;-31
2022/11/22 06:43:31;;;;;;;4.72;3.75;;;5.20;99.90;;;;;;5064690;28;20032;-31
2022/11/22 06:45:58;;;;;;;5.15;3.22;;;5.10;99.90;;;;;;5056131;28;20033;-31
2022/11/22 06:48:25;;;;;;;5.30;4.35;;;5.10;99.90;;;;;;5063163;28;20027;-31
2022/11/22 06:50:50;;;;;;;6.97;3.70;;;5.10;99.90;;;;;;5065555;28;20027;-31
2022/11/22 06:53:16;;;;;;;4.53;3.38;;;5.00;99.90;;;;;;5066823;28;20036;-31
2022/11/22 06:55:42;;;;;;;5.20;3.70;;;4.90;99.90;;;;;;5064659;28;20052;-30
2022/11/22 06:58:08;;;;;;;4.53;3.47;;;4.90;99.90;;;;;;5065596;28;20025;-32
2022/11/22 07:00:33;;;;;;;5.80;3.85;;;4.80;99.90;;;;;;5066181;28;20440;-32
2022/11/22 07:02:59;;;;;;;4.93;3.83;;;4.80;99.90;;;;;;5056167;28;20437;-31
2022/11/22 07:05:24;;;;;;;8.55;3.28;;;4.80;99.90;;;;;;5068876;28;20106;-33
2022/11/22 07:07:50;;;;;;;8.65;4.00;;;4.80;99.90;;;;;;5064606;28;20036;-32
2022/11/22 07:10:15;;;;;;;4.35;3.03;;;4.80;99.90;;;;;;5060129;28;20035;-31
2022/11/22 07:12:41;;;;;;;5.88;3.90;;;4.80;99.90;;;;;;5060283;28;20045;-32
2022/11/22 07:15:07;;;;;;;3.45;3.15;;;4.70;99.90;;;;;;5063256;28;20045;-32
2022/11/22 07:17:33;;;;;;;3.25;2.95;;;4.60;99.90;;;;;;5066037;28;20027;-32
2022/11/22 07:19:58;;;;;;;4.68;3.65;;;4.50;99.90;;;;;;5057431;28;20370;-33
2022/11/22 07:22:24;;;;;;;6.15;3.80;;;4.60;99.90;;;;;;5061895;28;20016;-36
2022/11/22 07:24:49;;;;;;;4.05;3.38;;;4.60;99.90;;;;;;5068136;28;20509;-31
2022/11/22 07:27:15;;;;;;;18.05;7.13;;;4.70;99.90;;;;;;5061363;28;20033;-34
2022/11/22 07:29:40;;;;;;;7.03;4.60;;;4.70;99.90;;;;;;5069067;28;20107;-31
2022/11/22 07:32:06;;;;;;;5.40;3.83;;;4.80;99.90;;;;;;5067620;28;20090;-32
2022/11/22 07:34:32;;;;;;;5.65;3.85;;;4.80;99.90;;;;;;5059496;28;20501;-31
2022/11/22 07:36:57;;;;;;;6.57;3.80;;;4.90;99.90;;;;;;5073027;28;20394;-32
2022/11/22 07:39:23;;;;;;;5.80;3.67;;;4.90;99.90;;;;;;5072581;28;20122;-32
2022/11/22 07:41:48;;;;;;;6.63;3.42;;;5.00;99.90;;;;;;5068488;28;20366;-31
2022/11/22 07:44:14;;;;;;;5.60;3.60;;;5.00;99.90;;;;;;5063847;28;20028;-31
2022/11/22 07:46:40;;;;;;;6.25;4.05;;;5.10;99.90;;;;;;5070783;28;20094;-32
2022/11/22 07:49:05;;;;;;;8.45;3.60;;;5.10;99.90;;;;;;5070351;28;20028;-31
2022/11/22 07:51:31;;;;;;;7.65;3.75;;;5.10;99.90;;;;;;5067673;28;20028;-31
2022/11/22 07:53:57;;;;;;;5.32;3.85;;;5.20;99.90;;;;;;5063888;28;20472;-33
2022/11/22 07:56:23;;;;;;;4.65;3.38;;;5.20;99.90;;;;;;5070739;28;20039;-31
2022/11/22 07:58:48;;;;;;;5.78;3.92;;;5.30;99.90;;;;;;5062378;28;20157;-33
2022/11/22 08:01:16;;;;;;;7.13;3.55;;;5.30;99.90;;;;;;5062768;28;20512;-32
2022/11/22 08:03:42;;;;;;;6.63;3.95;;;5.30;99.90;;;;;;5064716;28;20676;-32
2022/11/22 08:06:10;;;;;;;6.20;3.85;;;5.40;99.90;;;;;;5064462;28;20860;-31
2022/11/22 08:08:36;;;;;;;5.05;4.03;;;5.40;99.90;;;;;;5061691;28;20033;-31
2022/11/22 08:11:03;;;;;;;8.55;4.63;;;5.40;99.90;;;;;;5070979;28;20037;-31
2022/11/22 08:13:30;;;;;;;6.32;3.85;;;5.50;99.90;;;;;;5069474;28;20071;-32
2022/11/22 08:16:07;;;;;;;5.32;3.88;;;5.50;99.90;;;;;;5062042;28;20021;-31
2022/11/22 08:18:34;;;;;;;6.60;4.00;;;5.50;99.90;;;;;;5058702;28;20109;-32
2022/11/22 08:21:18;;;;;;;6.55;4.32;;;5.60;99.90;;;;;;5064678;28;20465;-30
2022/11/22 08:23:44;;;;;;;5.40;4.47;;;5.60;99.90;;;;;;5062803;28;20033;-31
2022/11/22 08:26:13;;;;;;;6.15;4.18;;;5.70;99.90;;;;;;5090935;28;20469;-32
2022/11/22 08:28:39;;;;;;;7.47;4.40;;;5.70;99.90;;;;;;5066444;28;20588;-31
2022/11/22 08:31:09;;;;;;;5.05;3.42;;;5.80;99.90;;;;;;5066814;28;20028;-33
2022/11/22 08:33:35;;;;;;;5.07;3.33;;;5.80;99.90;;;;;;5095212;28;20032;-31
2022/11/22 08:36:00;;;;;;;6.82;3.40;;;5.80;99.90;;;;;;5065871;28;20378;-34
2022/11/22 08:38:26;;;;;;;4.80;3.17;;;5.80;99.90;;;;;;5070720;28;20042;-31
2022/11/22 08:40:52;;;;;;;4.25;3.70;;;5.90;99.90;;;;;;5061048;28;20037;-31
2022/11/22 08:43:18;;;;;;;7.55;4.20;;;5.90;99.90;;;;;;5063149;28;20052;-31
2022/11/22 08:45:43;;;;;;;5.75;3.35;;;6.00;99.90;;;;;;5061238;28;20062;-32
2022/11/22 08:48:09;;;;;;;4.50;3.55;;;6.00;99.90;;;;;;5069547;28;20726;-32
2022/11/22 08:50:34;;;;;;;5.78;4.30;;;6.10;99.90;;;;;;5062962;28;20021;-30
2022/11/22 08:53:00;;;;;;;7.75;3.63;;;6.10;99.90;;;;;;5071473;28;20154;-31
2022/11/22 08:55:26;;;;;;;6.10;3.95;;;6.10;99.90;;;;;;5068230;28;20060;-31
2022/11/22 08:57:52;;;;;;;6.78;3.45;;;6.20;99.90;;;;;;5065491;28;20063;-32
2022/11/22 09:00:17;;;;;;;6.80;4.22;;;6.20;99.90;;;;;;5068454;28;20074;-31
2022/11/22 09:02:43;;;;;;;4.40;2.65;;;6.30;99.90;;;;;;5077812;28;20048;-31
2022/11/22 09:05:08;;;;;;;3.85;3.13;;;6.30;99.90;;;;;;5067804;28;20073;-33
2022/11/22 09:07:34;;;;;;;6.85;2.90;;;6.30;99.90;;;;;;5065185;28;20037;-31
2022/11/22 09:10:00;;;;;;;8.00;4.15;;;6.30;99.90;;;;;;5066488;28;20174;-32
2022/11/22 09:12:25;;;;;;;5.72;3.60;;;6.30;99.90;;;;;;5068142;28;20051;-31
2022/11/22 09:14:51;;;;;;;4.82;3.63;;;6.40;99.90;;;;;;5063346;28;20035;-31
2022/11/22 09:17:17;;;;;;;6.63;3.22;;;6.40;99.90;;;;;;5078567;28;20024;-31
2022/11/22 09:19:43;;;;;;;5.30;2.85;;;6.40;99.90;;;;;;5067682;28;20013;-31
2022/11/22 09:22:08;;;;;;;4.60;3.22;;;6.40;99.90;;;;;;5068391;28;20033;-31
2022/11/22 09:24:34;;;;;;;6.70;3.58;;;6.40;99.90;;;;;;5069264;28;20043;-30
2022/11/22 09:26:59;;;;;;;3.15;2.85;;;6.40;99.90;;;;;;5065121;28;20017;-32
2022/11/22 09:29:25;;;;;;;7.03;3.53;;;6.40;99.90;;;;;;5069604;28;20496;-30
2022/11/22 09:31:51;;;;;;;7.45;4.15;;;6.50;99.90;;;;;;5062286;28;20033;-31
2022/11/22 09:34:16;;;;;;;5.55;3.30;;;6.50;99.90;;;;;;5066375;28;20037;-31
2022/11/22 09:36:42;;;;;;;4.18;2.53;;;6.50;99.90;;;;;;5068013;28;20503;-32
2022/11/22 09:39:09;;;;;;;6.05;3.75;;;6.50;99.90;;;;;;5059502;28;20094;-32
2022/11/22 09:41:59;;;;;;;6.55;4.05;;;6.60;99.90;;;;;;5088477;28;20020;-32
2022/11/22 09:44:49;;;;;;;4.93;3.05;;;6.60;99.90;;;;;;5068137;28;20035;-32
2022/11/22 09:47:40;;;;;;;5.07;2.90;;;6.70;99.90;;;;;;5064471;28;20410;-31
2022/11/22 09:50:20;;;;;;;4.45;3.17;;;6.80;99.90;;;;;;5067095;28;20052;-31
2022/11/22 09:52:56;;;;;;;6.10;3.53;;;6.80;99.90;;;;;;5066922;28;20028;-32
2022/11/22 09:55:24;;;;;;;4.50;3.60;;;6.80;99.90;;;;;;5068276;28;20029;-33
2022/11/22 09:58:09;;;;;;;;;;;6.80;99.90;;;;;;5063878;28;20842;-32
2022/11/22 10:00:35;;;;;;;9.32;3.72;;;6.90;99.90;;;;;;5062248;28;20281;-31
2022/11/22 10:03:19;;;;;;;3.20;2.90;;;6.90;99.90;;;;;;5063446;28;20071;-32
2022/11/22 10:05:59;;;;;;;2.75;1.80;;;6.90;99.90;;;;;;5063247;28;20028;-31
2022/11/22 10:09:04;;;;;;;6.75;3.15;;;6.90;99.90;;;;;;5070398;28;20016;-31
2022/11/22 10:11:41;;;;;;;3.05;2.63;;;7.00;99.90;;;;;;5059599;28;20056;-31
2022/11/22 10:14:49;;;;;;;3.53;2.15;;;7.00;99.90;;;;;;5065252;28;20118;-32
2022/11/22 10:17:46;;;;;;;2.00;1.77;;;7.00;99.90;;;;;;5060762;28;20021;-31
2022/11/22 10:20:28;;;;;;;2.58;1.92;;;7.00;99.90;;;;;;5064151;28;20067;-31
2022/11/22 10:22:54;;;;;;;3.05;2.10;;;7.00;99.90;;;;;;5062738;28;20047;-33
2022/11/22 10:25:40;;;;;;;5.78;2.22;;;7.00;99.90;;;;;;5068508;28;20119;-31
2022/11/22 10:28:37;;;;;;;7.03;2.00;;;7.00;99.90;;;;;;5060431;28;20032;-33
2022/11/22 10:31:09;;;;;;;2.10;1.90;;;7.00;99.90;;;;;;5052638;28;20074;-31
2022/11/22 10:33:42;;;;;;;4.03;2.47;;;7.10;99.90;;;;;;5059963;28;20288;-31
2022/11/22 10:36:32;;;;;;;1.13;1.10;;;7.10;99.90;;;;;;5068032;28;20036;-31
2022/11/22 10:39:22;;;;;;;3.38;1.90;;;7.00;99.90;;;;;;5063700;28;20489;-31
2022/11/22 10:42:24;;;;;;;4.95;2.35;;;7.00;99.90;;;;;;5067293;28;20389;-33
2022/11/22 10:45:03;;;;;;;2.10;1.90;;;7.00;99.90;;;;;;5070563;28;20030;-31
2022/11/22 10:47:41;;;;;;;5.63;2.10;;;7.00;99.90;;;;;;5064334;28;20064;-34
2022/11/22 10:50:15;;;;;;;1.70;1.60;;;7.00;99.90;;;;;;5064016;28;20079;-31
2022/11/22 10:52:55;;;;;;;3.35;2.13;;;7.10;99.90;;;;;;5066113;28;20028;-33
2022/11/22 10:55:44;;;;;;;3.33;1.70;;;7.10;99.90;;;;;;5070322;28;20089;-31
2022/11/22 10:58:28;;;;;;;;;;;7.10;99.90;;;;;;5062653;28;20024;-35
2022/11/22 11:01:08;;;;;;;3.70;1.92;;;7.20;99.90;;;;;;5062316;28;19916;-30
2022/11/22 11:03:37;;;;;;;4.13;1.42;;;7.20;99.90;;;;;;5061736;28;20500;-31
2022/11/22 11:06:22;;;;;;;2.58;1.55;;;7.30;99.90;;;;;;5064072;28;20053;-31
2022/11/22 11:09:01;;;;;;;3.47;1.90;;;7.30;99.90;;;;;;5065322;28;20051;-31
2022/11/22 11:11:29;;;;;;;0.80;0.70;;;7.30;99.90;;;;;;5060914;28;20035;-32
2022/11/22 11:14:03;;;;;;;6.70;1.85;;;7.30;99.90;;;;;;5068224;28;20049;-33
2022/11/22 11:16:32;;;;;;;6.68;3.25;;;7.30;99.90;;;;;;5067515;28;20023;-31
2022/11/22 11:19:10;;;;;;;3.33;1.42;;;7.30;99.90;;;;;;5074011;28;20104;-32
2022/11/22 11:21:36;;;;;;;4.63;2.25;;;7.40;99.90;;;;;;5068692;28;20573;-31
2022/11/22 11:24:01;;;;;;;5.50;2.50;;;7.40;99.90;;;;;;5071284;28;20028;-32
2022/11/22 11:26:33;;;;;;;2.30;1.63;;;7.50;99.90;;;;;;5069306;28;20029;-33
2022/11/22 11:29:17;;;;;;;3.60;1.38;;;7.40;99.90;;;;;;5066146;28;20049;-31
2022/11/22 11:31:48;;;;;;;1.63;1.38;;;7.50;99.90;;;;;;5069392;28;20036;-31
2022/11/22 11:34:24;;;;;;;1.80;1.58;;;7.50;99.90;;;;;;5070924;28;20032;-31
2022/11/22 11:36:52;;;;;;;1.40;1.13;;;7.50;99.90;;;;;;5065996;28;20085;-30
2022/11/22 11:39:36;;;;;;;6.70;1.98;;;7.40;99.90;;;;;;5061808;28;20033;-32
2022/11/22 11:42:24;;;;;;;1.77;1.23;;;7.40;99.90;;;;;;5067544;28;20044;-31
2022/11/22 11:44:50;;;;;;;2.83;1.70;;;7.40;99.90;;;;;;5069254;28;20024;-31
2022/11/22 11:47:31;;;;;;;2.85;1.67;;;7.40;99.90;;;;;;5067660;28;20584;-32
2022/11/22 11:49:57;;;;;;;2.67;1.42;;;7.40;99.90;;;;;;5067182;28;20037;-30
2022/11/22 11:52:24;;;;;;;4.35;1.90;;;7.50;99.90;;;;;;5066870;28;20029;-30
2022/11/22 11:54:55;;;;;;;4.55;1.80;;;7.40;99.90;;;;;;5070222;28;20113;-31
2022/11/22 11:57:32;;;;;;;7.97;1.75;;;7.40;99.90;;;;;;5066456;28;20025;-32
2022/11/22 12:00:00;;;;;;;2.33;1.30;;;7.50;99.90;;;;;;5072154;28;20037;-34
2022/11/22 12:02:26;;;;;;;1.38;1.27;;;7.50;99.90;;;;;;5068378;28;20104;-31
2022/11/22 12:04:58;;;;;;;6.85;1.73;;;7.50;99.90;;;;;;5067141;28;20167;-32
2022/11/22 12:07:25;;;;;;;5.25;1.63;;;7.50;99.90;;;;;;5065294;28;20024;-34
2022/11/22 12:09:53;;;;;;;5.07;1.20;;;7.50;99.90;;;;;;5067866;28;20028;-32
2022/11/22 12:12:39;;;;;;;3.30;2.20;;;7.50;99.90;;;;;;5069688;28;20052;-31
2022/11/22 12:15:27;;;;;;;3.22;0.82;;;7.50;99.90;;;;;;5070225;28;20474;-31
2022/11/22 12:18:11;;;;;;;2.53;1.20;;;7.50;99.90;;;;;;5070494;28;20135;-32
2022/11/22 12:20:49;;;;;;;3.75;1.25;;;7.40;99.90;;;;;;5068189;28;20047;-32
2022/11/22 12:23:35;;;;;;;3.47;1.20;;;7.50;99.90;;;;;;5062916;28;20025;-31
2022/11/22 12:26:00;;;;;;;3.00;1.40;;;7.50;99.90;;;;;;5065519;28;20048;-34
2022/11/22 12:28:28;;;;;;;4.60;1.58;;;7.50;99.90;;;;;;5065510;28;20053;-31
2022/11/22 12:31:02;;;;;;;2.33;1.05;;;7.50;99.90;;;;;;5069099;28;20497;-32
2022/11/22 12:33:38;;;;;;;3.53;1.27;;;7.40;99.90;;;;;;5061070;28;20447;-31
2022/11/22 12:36:25;;;;;;;1.27;1.15;;;7.40;99.90;;;;;;5069154;28;20047;-34
2022/11/22 12:38:52;;;;;;;0.43;0.40;;;7.40;99.90;;;;;;5058457;28;20378;-34
2022/11/22 12:41:21;;;;;;;2.28;0.68;;;7.40;99.90;;;;;;5069923;28;20032;-31
2022/11/22 12:44:00;;;;;;;0.70;0.70;;;7.40;99.90;;;;;;5063821;28;20738;-31
2022/11/22 12:46:53;;;;;;;1.05;0.80;;;7.30;99.90;;;;;;5064116;28;20040;-31
2022/11/22 12:49:40;;;;;;;0.50;0.50;;;7.30;99.90;;;;;;5063390;28;20454;-32
2022/11/22 12:52:14;;;;;;;5.60;1.53;;;7.30;99.90;;;;;;5061877;28;20044;-32
2022/11/22 12:55:22;;;;;;;5.07;1.58;;;7.40;99.90;;;;;;5068125;28;20103;-31
2022/11/22 12:57:53;;;;;;;;;;;7.40;99.90;;;;;;5028049;28;20077;-31
2022/11/22 13:00:21;;;;;;;1.92;1.23;;;7.40;99.90;;;;;;5024952;28;19963;-31
2022/11/22 13:02:56;;;;;;;1.55;0.98;;;7.40;99.90;;;;;;5048153;28;20029;-31
2022/11/22 13:05:36;;;;;;;1.17;0.90;;;7.40;99.90;;;;;;5063382;28;20043;-33
2022/11/22 13:08:27;;;;;;;2.58;1.42;;;7.40;99.90;;;;;;5067308;28;20029;-33
2022/11/22 13:11:14;;;;;;;0.57;0.57;;;7.30;99.90;;;;;;5067329;28;20064;-32
2022/11/22 13:13:46;;;;;;;3.78;1.77;;;7.30;99.90;;;;;;5065235;28;20056;-32
2022/11/22 13:16:13;;;;;;;1.10;1.10;;;7.30;99.90;;;;;;5065327;28;20482;-32
2022/11/22 13:18:44;;;;;;;3.13;1.60;;;7.30;99.90;;;;;;5067694;28;20043;-31
2022/11/22 13:21:28;;;;;;;6.05;1.50;;;7.30;99.90;;;;;;5068365;28;20158;-31
2022/11/22 13:24:06;;;;;;;2.38;0.88;;;7.30;99.90;;;;;;5067076;28;20032;-32
2022/11/22 13:26:40;;;;;;;5.15;1.70;;;7.30;99.90;;;;;;5071771;28;20089;-31